sensor_id;sensor_type;location;lat;lon;timestamp;P1;durP1;ratioP1;P2;durP2;ratioP2
9729;SDS011;4904;49.152;11.004;2023-07-31T00:02:03;5.75;;;2.00;;
9729;SDS011;4904;49.152;11.004;2023-07-31T00:04:31;4.60;;;2.10;;
9729;SDS011;4904;49.152;11.004;2023-07-31T00:06:58;2.47;;;2.03;;
9729;SDS011;4904;49.152;11.004;2023-07-31T00:09:26;4.57;;;2.25;;
9729;SDS011;4904;49.152;11.004;2023-07-31T00:11:53;4.57;;;2.30;;
9729;SDS011;4904;49.152;11.004;2023-07-31T00:14:20;7.50;;;2.55;;
9729;SDS011;4904;49.152;11.004;2023-07-31T00:16:47;5.75;;;2.25;;
9729;SDS011;4904;49.152;11.004;2023-07-31T00:19:14;5.38;;;2.15;;
9729;SDS011;4904;49.152;11.004;2023-07-31T00:21:41;3.08;;;1.83;;
9729;SDS011;4904;49.152;11.004;2023-07-31T00:24:08;4.95;;;1.92;;
9729;SDS011;4904;49.152;11.004;2023-07-31T00:26:36;3.88;;;2.00;;
9729;SDS011;4904;49.152;11.004;2023-07-31T00:29:03;3.92;;;1.85;;
9729;SDS011;4904;49.152;11.004;2023-07-31T00:31:30;3.08;;;1.83;;
9729;SDS011;4904;49.152;11.004;2023-07-31T00:33:57;2.88;;;1.88;;
9729;SDS011;4904;49.152;11.004;2023-07-31T00:36:25;4.82;;;2.10;;
9729;SDS011;4904;49.152;11.004;2023-07-31T00:38:52;4.07;;;2.28;;
9729;SDS011;4904;49.152;11.004;2023-07-31T00:41:19;4.13;;;1.92;;
9729;SDS011;4904;49.152;11.004;2023-07-31T00:43:47;5.90;;;1.90;;
9729;SDS011;4904;49.152;11.004;2023-07-31T00:46:14;3.72;;;1.85;;
9729;SDS011;4904;49.152;11.004;2023-07-31T00:48:41;4.05;;;2.10;;
9729;SDS011;4904;49.152;11.004;2023-07-31T00:51:08;4.47;;;1.95;;
9729;SDS011;4904;49.152;11.004;2023-07-31T00:53:36;4.10;;;2.00;;
9729;SDS011;4904;49.152;11.004;2023-07-31T00:56:04;3.63;;;2.15;;
9729;SDS011;4904;49.152;11.004;2023-07-31T00:58:34;3.78;;;2.20;;
9729;SDS011;4904;49.152;11.004;2023-07-31T01:01:02;4.88;;;2.13;;
9729;SDS011;4904;49.152;11.004;2023-07-31T01:03:29;4.22;;;2.00;;
9729;SDS011;4904;49.152;11.004;2023-07-31T01:06:06;5.97;;;2.17;;
9729;SDS011;4904;49.152;11.004;2023-07-31T01:08:42;4.40;;;1.80;;
9729;SDS011;4904;49.152;11.004;2023-07-31T01:11:21;4.10;;;2.20;;
9729;SDS011;4904;49.152;11.004;2023-07-31T01:13:53;3.38;;;2.08;;
9729;SDS011;4904;49.152;11.004;2023-07-31T01:16:25;6.18;;;2.10;;
9729;SDS011;4904;49.152;11.004;2023-07-31T01:18:52;4.78;;;2.20;;
9729;SDS011;4904;49.152;11.004;2023-07-31T01:21:22;3.55;;;2.00;;
9729;SDS011;4904;49.152;11.004;2023-07-31T01:26:57;3.42;;;2.10;;
9729;SDS011;4904;49.152;11.004;2023-07-31T01:29:31;2.90;;;2.13;;
9729;SDS011;4904;49.152;11.004;2023-07-31T01:32:04;4.78;;;2.30;;
9729;SDS011;4904;49.152;11.004;2023-07-31T01:34:32;3.42;;;1.98;;
9729;SDS011;4904;49.152;11.004;2023-07-31T01:37:00;4.45;;;1.80;;
9729;SDS011;4904;49.152;11.004;2023-07-31T01:39:28;4.78;;;2.03;;
9729;SDS011;4904;49.152;11.004;2023-07-31T01:41:54;4.95;;;2.03;;
9729;SDS011;4904;49.152;11.004;2023-07-31T01:44:23;4.78;;;1.98;;
9729;SDS011;4904;49.152;11.004;2023-07-31T01:46:50;3.80;;;2.15;;
9729;SDS011;4904;49.152;11.004;2023-07-31T01:49:17;3.75;;;2.10;;
9729;SDS011;4904;49.152;11.004;2023-07-31T01:51:44;4.53;;;2.25;;
9729;SDS011;4904;49.152;11.004;2023-07-31T01:54:11;5.22;;;2.60;;
9729;SDS011;4904;49.152;11.004;2023-07-31T01:56:37;4.07;;;2.10;;
9729;SDS011;4904;49.152;11.004;2023-07-31T01:59:06;6.47;;;2.40;;
9729;SDS011;4904;49.152;11.004;2023-07-31T02:01:33;5.75;;;2.15;;
9729;SDS011;4904;49.152;11.004;2023-07-31T02:04:00;4.00;;;2.33;;
9729;SDS011;4904;49.152;11.004;2023-07-31T02:06:28;3.67;;;2.03;;
9729;SDS011;4904;49.152;11.004;2023-07-31T02:08:55;2.80;;;1.90;;
9729;SDS011;4904;49.152;11.004;2023-07-31T02:11:23;3.00;;;1.95;;
9729;SDS011;4904;49.152;11.004;2023-07-31T02:13:49;5.18;;;2.00;;
9729;SDS011;4904;49.152;11.004;2023-07-31T02:16:18;4.03;;;1.80;;
9729;SDS011;4904;49.152;11.004;2023-07-31T02:18:44;5.07;;;2.05;;
9729;SDS011;4904;49.152;11.004;2023-07-31T02:21:11;3.20;;;1.90;;
9729;SDS011;4904;49.152;11.004;2023-07-31T02:23:38;4.75;;;2.10;;
9729;SDS011;4904;49.152;11.004;2023-07-31T02:26:05;3.60;;;2.13;;
9729;SDS011;4904;49.152;11.004;2023-07-31T02:28:32;4.72;;;1.77;;
9729;SDS011;4904;49.152;11.004;2023-07-31T02:30:59;5.35;;;1.88;;
9729;SDS011;4904;49.152;11.004;2023-07-31T02:33:27;3.53;;;2.15;;
9729;SDS011;4904;49.152;11.004;2023-07-31T02:35:54;3.42;;;2.28;;
9729;SDS011;4904;49.152;11.004;2023-07-31T02:38:21;2.58;;;1.98;;
9729;SDS011;4904;49.152;11.004;2023-07-31T02:40:48;3.33;;;1.95;;
9729;SDS011;4904;49.152;11.004;2023-07-31T02:43:15;3.70;;;1.95;;
9729;SDS011;4904;49.152;11.004;2023-07-31T02:45:42;4.60;;;2.00;;
9729;SDS011;4904;49.152;11.004;2023-07-31T02:48:08;3.55;;;2.20;;
9729;SDS011;4904;49.152;11.004;2023-07-31T02:50:37;4.45;;;2.20;;
9729;SDS011;4904;49.152;11.004;2023-07-31T02:53:04;4.45;;;2.30;;
9729;SDS011;4904;49.152;11.004;2023-07-31T02:55:31;4.35;;;2.03;;
9729;SDS011;4904;49.152;11.004;2023-07-31T02:57:57;4.28;;;2.30;;
9729;SDS011;4904;49.152;11.004;2023-07-31T03:00:24;3.95;;;2.17;;
9729;SDS011;4904;49.152;11.004;2023-07-31T03:02:51;5.03;;;2.40;;
9729;SDS011;4904;49.152;11.004;2023-07-31T03:05:18;6.47;;;1.85;;
9729;SDS011;4904;49.152;11.004;2023-07-31T03:07:46;3.90;;;2.05;;
9729;SDS011;4904;49.152;11.004;2023-07-31T03:10:13;2.63;;;1.83;;
9729;SDS011;4904;49.152;11.004;2023-07-31T03:12:40;3.78;;;2.08;;
9729;SDS011;4904;49.152;11.004;2023-07-31T03:15:08;4.18;;;2.08;;
9729;SDS011;4904;49.152;11.004;2023-07-31T03:17:35;3.88;;;2.03;;
9729;SDS011;4904;49.152;11.004;2023-07-31T03:20:03;6.57;;;2.20;;
9729;SDS011;4904;49.152;11.004;2023-07-31T03:22:30;4.10;;;1.83;;
9729;SDS011;4904;49.152;11.004;2023-07-31T03:24:58;4.85;;;2.30;;
9729;SDS011;4904;49.152;11.004;2023-07-31T03:27:26;3.72;;;1.92;;
9729;SDS011;4904;49.152;11.004;2023-07-31T03:29:53;4.15;;;2.25;;
9729;SDS011;4904;49.152;11.004;2023-07-31T03:32:20;3.40;;;2.15;;
9729;SDS011;4904;49.152;11.004;2023-07-31T03:34:47;4.97;;;2.13;;
9729;SDS011;4904;49.152;11.004;2023-07-31T03:37:13;4.38;;;2.17;;
9729;SDS011;4904;49.152;11.004;2023-07-31T03:39:40;2.20;;;2.00;;
9729;SDS011;4904;49.152;11.004;2023-07-31T03:42:08;3.95;;;2.08;;
9729;SDS011;4904;49.152;11.004;2023-07-31T03:44:35;2.85;;;1.80;;
9729;SDS011;4904;49.152;11.004;2023-07-31T03:47:03;4.22;;;1.92;;
9729;SDS011;4904;49.152;11.004;2023-07-31T03:49:30;5.10;;;1.90;;
9729;SDS011;4904;49.152;11.004;2023-07-31T03:51:58;5.15;;;2.47;;
9729;SDS011;4904;49.152;11.004;2023-07-31T03:54:24;3.28;;;1.95;;
9729;SDS011;4904;49.152;11.004;2023-07-31T03:56:51;3.75;;;2.10;;
9729;SDS011;4904;49.152;11.004;2023-07-31T03:59:19;6.13;;;1.83;;
9729;SDS011;4904;49.152;11.004;2023-07-31T04:01:46;5.35;;;2.35;;
9729;SDS011;4904;49.152;11.004;2023-07-31T04:04:14;3.53;;;1.83;;
9729;SDS011;4904;49.152;11.004;2023-07-31T04:06:41;3.50;;;1.90;;
9729;SDS011;4904;49.152;11.004;2023-07-31T04:09:08;3.92;;;1.77;;
9729;SDS011;4904;49.152;11.004;2023-07-31T04:11:35;4.78;;;2.13;;
9729;SDS011;4904;49.152;11.004;2023-07-31T04:14:02;2.58;;;1.70;;
9729;SDS011;4904;49.152;11.004;2023-07-31T04:16:31;2.92;;;1.80;;
9729;SDS011;4904;49.152;11.004;2023-07-31T04:18:58;4.90;;;1.90;;
9729;SDS011;4904;49.152;11.004;2023-07-31T04:21:25;3.25;;;1.90;;
9729;SDS011;4904;49.152;11.004;2023-07-31T04:23:52;4.18;;;2.00;;
9729;SDS011;4904;49.152;11.004;2023-07-31T04:26:21;5.72;;;1.80;;
9729;SDS011;4904;49.152;11.004;2023-07-31T04:28:48;3.65;;;2.22;;
9729;SDS011;4904;49.152;11.004;2023-07-31T04:31:15;4.03;;;1.65;;
9729;SDS011;4904;49.152;11.004;2023-07-31T04:33:43;3.58;;;2.10;;
9729;SDS011;4904;49.152;11.004;2023-07-31T04:36:10;5.30;;;2.28;;
9729;SDS011;4904;49.152;11.004;2023-07-31T04:38:37;3.92;;;1.83;;
9729;SDS011;4904;49.152;11.004;2023-07-31T04:41:06;2.55;;;1.80;;
9729;SDS011;4904;49.152;11.004;2023-07-31T04:43:33;3.00;;;1.90;;
9729;SDS011;4904;49.152;11.004;2023-07-31T04:46:00;3.42;;;2.17;;
9729;SDS011;4904;49.152;11.004;2023-07-31T04:48:27;3.10;;;2.50;;
9729;SDS011;4904;49.152;11.004;2023-07-31T04:50:55;3.80;;;2.40;;
9729;SDS011;4904;49.152;11.004;2023-07-31T04:53:22;3.50;;;2.22;;
9729;SDS011;4904;49.152;11.004;2023-07-31T04:55:49;2.90;;;1.95;;
9729;SDS011;4904;49.152;11.004;2023-07-31T04:58:16;4.30;;;2.00;;
9729;SDS011;4904;49.152;11.004;2023-07-31T05:00:43;4.82;;;2.08;;
9729;SDS011;4904;49.152;11.004;2023-07-31T05:03:10;2.58;;;1.83;;
9729;SDS011;4904;49.152;11.004;2023-07-31T05:05:37;4.05;;;2.55;;
9729;SDS011;4904;49.152;11.004;2023-07-31T05:08:06;3.15;;;2.03;;
9729;SDS011;4904;49.152;11.004;2023-07-31T05:10:33;3.22;;;1.90;;
9729;SDS011;4904;49.152;11.004;2023-07-31T05:13:00;2.90;;;2.03;;
9729;SDS011;4904;49.152;11.004;2023-07-31T05:15:27;5.50;;;2.15;;
9729;SDS011;4904;49.152;11.004;2023-07-31T05:17:54;3.13;;;2.10;;
9729;SDS011;4904;49.152;11.004;2023-07-31T05:20:21;4.68;;;2.10;;
9729;SDS011;4904;49.152;11.004;2023-07-31T05:22:49;3.30;;;2.17;;
9729;SDS011;4904;49.152;11.004;2023-07-31T05:25:18;4.00;;;2.33;;
9729;SDS011;4904;49.152;11.004;2023-07-31T05:27:45;3.90;;;1.90;;
9729;SDS011;4904;49.152;11.004;2023-07-31T05:30:12;2.47;;;1.90;;
9729;SDS011;4904;49.152;11.004;2023-07-31T05:32:39;3.25;;;2.10;;
9729;SDS011;4904;49.152;11.004;2023-07-31T05:35:06;3.15;;;1.90;;
9729;SDS011;4904;49.152;11.004;2023-07-31T05:37:34;3.90;;;2.22;;
9729;SDS011;4904;49.152;11.004;2023-07-31T05:40:01;5.85;;;2.05;;
9729;SDS011;4904;49.152;11.004;2023-07-31T05:42:29;4.70;;;2.00;;
9729;SDS011;4904;49.152;11.004;2023-07-31T05:44:56;4.13;;;2.05;;
9729;SDS011;4904;49.152;11.004;2023-07-31T05:47:23;3.65;;;2.22;;
9729;SDS011;4904;49.152;11.004;2023-07-31T05:49:50;5.47;;;2.20;;
9729;SDS011;4904;49.152;11.004;2023-07-31T05:52:17;4.10;;;2.30;;
9729;SDS011;4904;49.152;11.004;2023-07-31T05:54:44;2.22;;;1.65;;
9729;SDS011;4904;49.152;11.004;2023-07-31T05:57:12;4.10;;;2.00;;
9729;SDS011;4904;49.152;11.004;2023-07-31T05:59:40;4.18;;;2.03;;
9729;SDS011;4904;49.152;11.004;2023-07-31T06:02:07;2.45;;;2.00;;
9729;SDS011;4904;49.152;11.004;2023-07-31T06:04:34;5.78;;;1.85;;
9729;SDS011;4904;49.152;11.004;2023-07-31T06:07:00;3.83;;;1.70;;
9729;SDS011;4904;49.152;11.004;2023-07-31T06:09:28;2.90;;;1.85;;
9729;SDS011;4904;49.152;11.004;2023-07-31T06:11:55;6.43;;;2.55;;
9729;SDS011;4904;49.152;11.004;2023-07-31T06:14:22;3.78;;;2.10;;
9729;SDS011;4904;49.152;11.004;2023-07-31T06:16:50;4.60;;;2.30;;
9729;SDS011;4904;49.152;11.004;2023-07-31T06:19:17;3.95;;;2.33;;
9729;SDS011;4904;49.152;11.004;2023-07-31T06:21:45;3.58;;;2.10;;
9729;SDS011;4904;49.152;11.004;2023-07-31T06:24:12;2.92;;;1.85;;
9729;SDS011;4904;49.152;11.004;2023-07-31T06:26:43;3.63;;;2.17;;
9729;SDS011;4904;49.152;11.004;2023-07-31T06:29:10;6.32;;;2.40;;
9729;SDS011;4904;49.152;11.004;2023-07-31T06:31:37;7.43;;;2.03;;
9729;SDS011;4904;49.152;11.004;2023-07-31T06:34:05;5.03;;;2.35;;
9729;SDS011;4904;49.152;11.004;2023-07-31T06:36:33;2.65;;;2.00;;
9729;SDS011;4904;49.152;11.004;2023-07-31T06:39:00;6.28;;;2.38;;
9729;SDS011;4904;49.152;11.004;2023-07-31T06:41:27;4.38;;;2.03;;
9729;SDS011;4904;49.152;11.004;2023-07-31T06:43:54;3.83;;;2.30;;
9729;SDS011;4904;49.152;11.004;2023-07-31T06:46:21;2.97;;;2.50;;
9729;SDS011;4904;49.152;11.004;2023-07-31T06:48:48;5.95;;;2.60;;
9729;SDS011;4904;49.152;11.004;2023-07-31T06:51:16;4.25;;;2.38;;
9729;SDS011;4904;49.152;11.004;2023-07-31T06:53:43;4.20;;;2.47;;
9729;SDS011;4904;49.152;11.004;2023-07-31T06:56:10;4.45;;;2.40;;
9729;SDS011;4904;49.152;11.004;2023-07-31T06:58:37;5.90;;;2.38;;
9729;SDS011;4904;49.152;11.004;2023-07-31T07:01:05;3.05;;;1.98;;
9729;SDS011;4904;49.152;11.004;2023-07-31T07:03:32;7.18;;;2.28;;
9729;SDS011;4904;49.152;11.004;2023-07-31T07:05:58;4.80;;;2.38;;
9729;SDS011;4904;49.152;11.004;2023-07-31T07:08:27;2.67;;;2.15;;
9729;SDS011;4904;49.152;11.004;2023-07-31T07:10:54;3.88;;;2.03;;
9729;SDS011;4904;49.152;11.004;2023-07-31T07:13:21;3.40;;;2.15;;
9729;SDS011;4904;49.152;11.004;2023-07-31T07:15:48;4.32;;;2.20;;
9729;SDS011;4904;49.152;11.004;2023-07-31T07:18:15;4.05;;;2.20;;
9729;SDS011;4904;49.152;11.004;2023-07-31T07:20:45;2.97;;;2.08;;
9729;SDS011;4904;49.152;11.004;2023-07-31T07:23:13;4.80;;;2.17;;
9729;SDS011;4904;49.152;11.004;2023-07-31T07:25:41;3.83;;;2.40;;
9729;SDS011;4904;49.152;11.004;2023-07-31T07:28:08;3.83;;;2.35;;
9729;SDS011;4904;49.152;11.004;2023-07-31T07:30:35;4.30;;;2.20;;
9729;SDS011;4904;49.152;11.004;2023-07-31T07:33:02;4.20;;;2.17;;
9729;SDS011;4904;49.152;11.004;2023-07-31T07:35:30;2.90;;;2.15;;
9729;SDS011;4904;49.152;11.004;2023-07-31T07:38:00;5.05;;;2.40;;
9729;SDS011;4904;49.152;11.004;2023-07-31T07:40:27;5.00;;;2.30;;
9729;SDS011;4904;49.152;11.004;2023-07-31T07:42:55;4.40;;;2.28;;
9729;SDS011;4904;49.152;11.004;2023-07-31T07:45:22;6.68;;;2.67;;
9729;SDS011;4904;49.152;11.004;2023-07-31T07:47:50;3.92;;;2.42;;
9729;SDS011;4904;49.152;11.004;2023-07-31T07:50:17;3.63;;;2.40;;
9729;SDS011;4904;49.152;11.004;2023-07-31T07:52:44;7.15;;;2.60;;
9729;SDS011;4904;49.152;11.004;2023-07-31T07:55:11;4.88;;;2.60;;
9729;SDS011;4904;49.152;11.004;2023-07-31T07:57:38;3.22;;;2.25;;
9729;SDS011;4904;49.152;11.004;2023-07-31T08:00:07;5.47;;;2.47;;
9729;SDS011;4904;49.152;11.004;2023-07-31T08:02:35;4.25;;;2.33;;
9729;SDS011;4904;49.152;11.004;2023-07-31T08:05:02;6.53;;;2.60;;
9729;SDS011;4904;49.152;11.004;2023-07-31T08:07:29;4.18;;;2.70;;
9729;SDS011;4904;49.152;11.004;2023-07-31T08:09:56;5.07;;;2.85;;
9729;SDS011;4904;49.152;11.004;2023-07-31T08:12:23;3.95;;;2.78;;
9729;SDS011;4904;49.152;11.004;2023-07-31T08:14:51;5.05;;;2.72;;
9729;SDS011;4904;49.152;11.004;2023-07-31T08:17:19;4.80;;;2.60;;
9729;SDS011;4904;49.152;11.004;2023-07-31T08:19:46;4.28;;;2.30;;
9729;SDS011;4904;49.152;11.004;2023-07-31T08:22:13;2.92;;;2.30;;
9729;SDS011;4904;49.152;11.004;2023-07-31T08:24:41;3.30;;;2.40;;
9729;SDS011;4904;49.152;11.004;2023-07-31T08:27:08;2.25;;;2.00;;
9729;SDS011;4904;49.152;11.004;2023-07-31T08:29:34;3.65;;;2.70;;
9729;SDS011;4904;49.152;11.004;2023-07-31T08:32:02;3.85;;;2.40;;
9729;SDS011;4904;49.152;11.004;2023-07-31T08:34:30;4.57;;;2.50;;
9729;SDS011;4904;49.152;11.004;2023-07-31T08:36:57;4.03;;;2.22;;
9729;SDS011;4904;49.152;11.004;2023-07-31T08:39:24;4.70;;;2.63;;
9729;SDS011;4904;49.152;11.004;2023-07-31T08:41:51;4.65;;;2.78;;
9729;SDS011;4904;49.152;11.004;2023-07-31T08:44:24;7.32;;;2.50;;
9729;SDS011;4904;49.152;11.004;2023-07-31T08:46:51;3.08;;;2.58;;
9729;SDS011;4904;49.152;11.004;2023-07-31T08:49:19;5.28;;;2.78;;
9729;SDS011;4904;49.152;11.004;2023-07-31T08:51:50;3.03;;;2.40;;
9729;SDS011;4904;49.152;11.004;2023-07-31T08:54:20;4.90;;;2.50;;
9729;SDS011;4904;49.152;11.004;2023-07-31T08:56:47;4.85;;;2.88;;
9729;SDS011;4904;49.152;11.004;2023-07-31T08:59:15;6.70;;;2.83;;
9729;SDS011;4904;49.152;11.004;2023-07-31T09:01:43;6.45;;;2.95;;
9729;SDS011;4904;49.152;11.004;2023-07-31T09:04:16;4.13;;;2.53;;
9729;SDS011;4904;49.152;11.004;2023-07-31T09:06:46;5.85;;;2.75;;
9729;SDS011;4904;49.152;11.004;2023-07-31T09:09:15;5.45;;;2.78;;
9729;SDS011;4904;49.152;11.004;2023-07-31T09:11:42;4.35;;;2.78;;
9729;SDS011;4904;49.152;11.004;2023-07-31T09:14:09;5.35;;;2.45;;
9729;SDS011;4904;49.152;11.004;2023-07-31T09:16:37;6.07;;;2.97;;
9729;SDS011;4904;49.152;11.004;2023-07-31T09:19:24;4.75;;;2.85;;
9729;SDS011;4904;49.152;11.004;2023-07-31T09:21:52;6.40;;;2.40;;
9729;SDS011;4904;49.152;11.004;2023-07-31T09:24:26;3.22;;;2.60;;
9729;SDS011;4904;49.152;11.004;2023-07-31T09:26:54;5.72;;;2.60;;
9729;SDS011;4904;49.152;11.004;2023-07-31T09:29:21;4.43;;;2.60;;
9729;SDS011;4904;49.152;11.004;2023-07-31T09:31:50;4.78;;;2.78;;
9729;SDS011;4904;49.152;11.004;2023-07-31T09:34:17;6.35;;;2.80;;
9729;SDS011;4904;49.152;11.004;2023-07-31T09:36:44;4.47;;;2.25;;
9729;SDS011;4904;49.152;11.004;2023-07-31T09:39:14;5.72;;;2.70;;
9729;SDS011;4904;49.152;11.004;2023-07-31T09:41:43;3.47;;;2.38;;
9729;SDS011;4904;49.152;11.004;2023-07-31T09:44:11;4.03;;;2.60;;
9729;SDS011;4904;49.152;11.004;2023-07-31T09:46:39;3.67;;;2.28;;
9729;SDS011;4904;49.152;11.004;2023-07-31T09:49:07;4.32;;;2.42;;
9729;SDS011;4904;49.152;11.004;2023-07-31T09:51:35;3.80;;;2.00;;
9729;SDS011;4904;49.152;11.004;2023-07-31T09:54:08;4.70;;;2.75;;
9729;SDS011;4904;49.152;11.004;2023-07-31T09:56:38;4.18;;;2.10;;
9729;SDS011;4904;49.152;11.004;2023-07-31T09:59:09;3.97;;;2.42;;
9729;SDS011;4904;49.152;11.004;2023-07-31T10:01:38;3.85;;;2.10;;
9729;SDS011;4904;49.152;11.004;2023-07-31T10:04:07;6.13;;;2.60;;
9729;SDS011;4904;49.152;11.004;2023-07-31T10:06:35;3.50;;;2.55;;
9729;SDS011;4904;49.152;11.004;2023-07-31T10:09:03;3.42;;;2.28;;
9729;SDS011;4904;49.152;11.004;2023-07-31T10:11:33;3.58;;;2.55;;
9729;SDS011;4904;49.152;11.004;2023-07-31T10:14:03;4.43;;;2.65;;
9729;SDS011;4904;49.152;11.004;2023-07-31T10:16:32;2.90;;;2.63;;
9729;SDS011;4904;49.152;11.004;2023-07-31T10:19:01;2.88;;;2.47;;
9729;SDS011;4904;49.152;11.004;2023-07-31T10:21:28;4.05;;;2.28;;
9729;SDS011;4904;49.152;11.004;2023-07-31T10:24:01;3.97;;;2.45;;
9729;SDS011;4904;49.152;11.004;2023-07-31T10:26:29;3.65;;;2.28;;
9729;SDS011;4904;49.152;11.004;2023-07-31T10:28:58;2.90;;;2.53;;
9729;SDS011;4904;49.152;11.004;2023-07-31T10:31:26;3.90;;;2.45;;
9729;SDS011;4904;49.152;11.004;2023-07-31T10:33:55;2.67;;;2.42;;
9729;SDS011;4904;49.152;11.004;2023-07-31T10:36:25;5.75;;;2.55;;
9729;SDS011;4904;49.152;11.004;2023-07-31T10:38:52;3.88;;;2.55;;
9729;SDS011;4904;49.152;11.004;2023-07-31T10:41:26;4.85;;;2.65;;
9729;SDS011;4904;49.152;11.004;2023-07-31T10:43:54;4.53;;;2.47;;
9729;SDS011;4904;49.152;11.004;2023-07-31T10:46:24;5.75;;;3.05;;
9729;SDS011;4904;49.152;11.004;2023-07-31T10:48:58;5.63;;;2.55;;
9729;SDS011;4904;49.152;11.004;2023-07-31T10:51:32;4.38;;;2.78;;
9729;SDS011;4904;49.152;11.004;2023-07-31T10:54:10;3.83;;;2.53;;
9729;SDS011;4904;49.152;11.004;2023-07-31T10:56:39;4.85;;;2.50;;
9729;SDS011;4904;49.152;11.004;2023-07-31T10:59:06;3.03;;;2.50;;
9729;SDS011;4904;49.152;11.004;2023-07-31T11:01:52;3.35;;;2.30;;
9729;SDS011;4904;49.152;11.004;2023-07-31T11:04:33;3.72;;;2.53;;
9729;SDS011;4904;49.152;11.004;2023-07-31T11:07:00;4.63;;;2.80;;
9729;SDS011;4904;49.152;11.004;2023-07-31T11:09:30;5.90;;;2.90;;
9729;SDS011;4904;49.152;11.004;2023-07-31T11:11:58;4.72;;;2.80;;
9729;SDS011;4904;49.152;11.004;2023-07-31T11:14:26;4.72;;;2.90;;
9729;SDS011;4904;49.152;11.004;2023-07-31T11:16:53;3.88;;;2.70;;
9729;SDS011;4904;49.152;11.004;2023-07-31T11:19:24;5.05;;;3.03;;
9729;SDS011;4904;49.152;11.004;2023-07-31T11:21:52;4.30;;;3.00;;
9729;SDS011;4904;49.152;11.004;2023-07-31T11:24:19;4.28;;;2.92;;
9729;SDS011;4904;49.152;11.004;2023-07-31T11:26:50;4.85;;;2.55;;
9729;SDS011;4904;49.152;11.004;2023-07-31T11:29:18;4.45;;;3.20;;
9729;SDS011;4904;49.152;11.004;2023-07-31T11:31:46;3.75;;;2.80;;
9729;SDS011;4904;49.152;11.004;2023-07-31T11:34:14;4.88;;;2.80;;
9729;SDS011;4904;49.152;11.004;2023-07-31T11:36:53;3.50;;;2.22;;
9729;SDS011;4904;49.152;11.004;2023-07-31T11:39:21;5.13;;;2.80;;
9729;SDS011;4904;49.152;11.004;2023-07-31T11:41:48;5.43;;;2.85;;
9729;SDS011;4904;49.152;11.004;2023-07-31T11:44:15;3.28;;;2.90;;
9729;SDS011;4904;49.152;11.004;2023-07-31T11:46:42;4.65;;;2.75;;
9729;SDS011;4904;49.152;11.004;2023-07-31T11:49:09;4.45;;;2.92;;
9729;SDS011;4904;49.152;11.004;2023-07-31T11:51:36;5.22;;;2.95;;
9729;SDS011;4904;49.152;11.004;2023-07-31T11:54:05;4.45;;;3.00;;
9729;SDS011;4904;49.152;11.004;2023-07-31T11:56:32;3.30;;;2.75;;
9729;SDS011;4904;49.152;11.004;2023-07-31T11:58:59;4.22;;;2.65;;
9729;SDS011;4904;49.152;11.004;2023-07-31T12:01:30;5.05;;;3.33;;
9729;SDS011;4904;49.152;11.004;2023-07-31T12:03:58;3.97;;;2.90;;
9729;SDS011;4904;49.152;11.004;2023-07-31T12:06:32;3.38;;;2.90;;
9729;SDS011;4904;49.152;11.004;2023-07-31T12:09:00;5.95;;;3.30;;
9729;SDS011;4904;49.152;11.004;2023-07-31T12:11:30;4.53;;;2.95;;
9729;SDS011;4904;49.152;11.004;2023-07-31T12:13:58;4.97;;;2.92;;
9729;SDS011;4904;49.152;11.004;2023-07-31T12:16:25;4.32;;;3.20;;
9729;SDS011;4904;49.152;11.004;2023-07-31T12:18:53;4.22;;;3.10;;
9729;SDS011;4904;49.152;11.004;2023-07-31T12:21:20;6.15;;;3.80;;
9729;SDS011;4904;49.152;11.004;2023-07-31T12:23:47;4.15;;;3.10;;
9729;SDS011;4904;49.152;11.004;2023-07-31T12:26:15;4.72;;;3.20;;
9729;SDS011;4904;49.152;11.004;2023-07-31T12:28:45;4.28;;;2.83;;
9729;SDS011;4904;49.152;11.004;2023-07-31T12:31:16;5.63;;;3.65;;
9729;SDS011;4904;49.152;11.004;2023-07-31T12:33:44;3.97;;;3.10;;
9729;SDS011;4904;49.152;11.004;2023-07-31T12:36:12;6.32;;;3.90;;
9729;SDS011;4904;49.152;11.004;2023-07-31T12:38:40;7.50;;;3.65;;
9729;SDS011;4904;49.152;11.004;2023-07-31T12:41:08;4.43;;;3.03;;
9729;SDS011;4904;49.152;11.004;2023-07-31T12:43:36;7.13;;;3.63;;
9729;SDS011;4904;49.152;11.004;2023-07-31T12:46:05;4.40;;;3.40;;
9729;SDS011;4904;49.152;11.004;2023-07-31T12:48:33;3.95;;;3.17;;
9729;SDS011;4904;49.152;11.004;2023-07-31T12:51:00;4.60;;;3.63;;
9729;SDS011;4904;49.152;11.004;2023-07-31T12:53:27;4.20;;;3.42;;
9729;SDS011;4904;49.152;11.004;2023-07-31T12:55:55;5.68;;;3.40;;
9729;SDS011;4904;49.152;11.004;2023-07-31T12:58:22;5.97;;;3.33;;
9729;SDS011;4904;49.152;11.004;2023-07-31T13:00:49;4.97;;;3.42;;
9729;SDS011;4904;49.152;11.004;2023-07-31T13:03:18;4.30;;;3.28;;
9729;SDS011;4904;49.152;11.004;2023-07-31T13:05:45;5.03;;;3.40;;
9729;SDS011;4904;49.152;11.004;2023-07-31T13:08:12;3.33;;;2.78;;
9729;SDS011;4904;49.152;11.004;2023-07-31T13:10:42;5.72;;;3.22;;
9729;SDS011;4904;49.152;11.004;2023-07-31T13:13:10;4.55;;;3.08;;
9729;SDS011;4904;49.152;11.004;2023-07-31T13:15:37;4.32;;;3.22;;
9729;SDS011;4904;49.152;11.004;2023-07-31T13:18:04;5.22;;;3.05;;
9729;SDS011;4904;49.152;11.004;2023-07-31T13:20:32;4.88;;;3.10;;
9729;SDS011;4904;49.152;11.004;2023-07-31T13:22:59;3.95;;;3.00;;
9729;SDS011;4904;49.152;11.004;2023-07-31T13:25:26;5.15;;;3.30;;
9729;SDS011;4904;49.152;11.004;2023-07-31T13:27:53;3.85;;;3.22;;
9729;SDS011;4904;49.152;11.004;2023-07-31T13:30:20;4.72;;;3.13;;
9729;SDS011;4904;49.152;11.004;2023-07-31T13:32:47;5.10;;;3.20;;
9729;SDS011;4904;49.152;11.004;2023-07-31T13:35:14;3.10;;;2.80;;
9729;SDS011;4904;49.152;11.004;2023-07-31T13:37:43;4.03;;;3.15;;
9729;SDS011;4904;49.152;11.004;2023-07-31T13:40:10;6.00;;;2.83;;
9729;SDS011;4904;49.152;11.004;2023-07-31T13:42:37;3.60;;;2.65;;
9729;SDS011;4904;49.152;11.004;2023-07-31T13:45:05;3.50;;;2.72;;
9729;SDS011;4904;49.152;11.004;2023-07-31T13:47:32;4.50;;;2.88;;
9729;SDS011;4904;49.152;11.004;2023-07-31T13:49:59;5.38;;;2.92;;
9729;SDS011;4904;49.152;11.004;2023-07-31T13:52:26;4.15;;;3.25;;
9729;SDS011;4904;49.152;11.004;2023-07-31T13:54:54;5.32;;;3.38;;
9729;SDS011;4904;49.152;11.004;2023-07-31T13:57:21;3.42;;;2.92;;
9729;SDS011;4904;49.152;11.004;2023-07-31T13:59:49;4.43;;;2.92;;
9729;SDS011;4904;49.152;11.004;2023-07-31T14:02:16;5.18;;;3.08;;
9729;SDS011;4904;49.152;11.004;2023-07-31T14:04:43;5.32;;;3.10;;
9729;SDS011;4904;49.152;11.004;2023-07-31T14:07:10;4.07;;;3.30;;
9729;SDS011;4904;49.152;11.004;2023-07-31T14:09:37;4.32;;;3.38;;
9729;SDS011;4904;49.152;11.004;2023-07-31T14:12:06;4.13;;;2.85;;
9729;SDS011;4904;49.152;11.004;2023-07-31T14:14:33;4.00;;;3.13;;
9729;SDS011;4904;49.152;11.004;2023-07-31T14:17:00;4.18;;;3.20;;
9729;SDS011;4904;49.152;11.004;2023-07-31T14:19:27;3.30;;;2.88;;
9729;SDS011;4904;49.152;11.004;2023-07-31T14:21:54;3.63;;;3.20;;
9729;SDS011;4904;49.152;11.004;2023-07-31T14:24:21;3.67;;;2.90;;
9729;SDS011;4904;49.152;11.004;2023-07-31T14:26:48;4.15;;;3.08;;
9729;SDS011;4904;49.152;11.004;2023-07-31T14:29:18;3.47;;;2.78;;
9729;SDS011;4904;49.152;11.004;2023-07-31T14:31:45;4.68;;;3.50;;
9729;SDS011;4904;49.152;11.004;2023-07-31T14:34:12;6.20;;;2.95;;
9729;SDS011;4904;49.152;11.004;2023-07-31T14:36:39;3.92;;;3.20;;
9729;SDS011;4904;49.152;11.004;2023-07-31T14:39:06;4.18;;;3.00;;
9729;SDS011;4904;49.152;11.004;2023-07-31T14:41:33;4.38;;;3.08;;
9729;SDS011;4904;49.152;11.004;2023-07-31T14:44:00;5.15;;;3.15;;
9729;SDS011;4904;49.152;11.004;2023-07-31T14:46:28;4.80;;;3.25;;
9729;SDS011;4904;49.152;11.004;2023-07-31T14:48:55;4.93;;;2.92;;
9729;SDS011;4904;49.152;11.004;2023-07-31T14:51:22;5.00;;;2.95;;
9729;SDS011;4904;49.152;11.004;2023-07-31T14:53:49;6.18;;;3.15;;
9729;SDS011;4904;49.152;11.004;2023-07-31T14:56:16;3.63;;;2.92;;
9729;SDS011;4904;49.152;11.004;2023-07-31T14:58:44;5.57;;;3.05;;
9729;SDS011;4904;49.152;11.004;2023-07-31T15:01:11;3.67;;;2.83;;
9729;SDS011;4904;49.152;11.004;2023-07-31T15:03:39;4.25;;;3.30;;
9729;SDS011;4904;49.152;11.004;2023-07-31T15:06:06;4.93;;;2.88;;
9729;SDS011;4904;49.152;11.004;2023-07-31T15:08:33;6.28;;;3.50;;